Colona, CO

1:55 PM MDT on October 23, 2014 (GMT -0600)
Spring Creek | Change Station
CLOSE
Current Station
Personal Weather Station
Location: Montrose, CO
Elevation: 6020 ft
Nearby Weather Stations

Elev 6020 ft 38.44 °N, 107.90 °W | Updated 56 seconds ago

Clear
Clear
66.8 °F
Feels Like 66.8 °F
N
1.0
Wind Variable Wind from NE
Gusts 11.0 mph

Today
High -- | Low -- °F
--% Chance of Precip.
Yesterday
High -- | Low -- °F
Precip. -- in
7:28 AM 6:22 PM
Waning Crescent, 0% visible
Pressure 30.13 in
Visibility 10.0 miles
Clouds Clear
Dew Point 38 °F
Humidity 35%
Rainfall 0.00 in
Snow Depth Not available.
UV 5 out of 12
Pollen 1.40 out of 12
Air Quality Not available.
Flu Activity Sporadic
METAR KMTJ 231853Z AUTO 00000KT 10SM CLR 18/03 A3028 RMK AO2 SLP203 T01830033

More Conditions Fewer Conditions

Pressure 30.13 in
Visibility 10.0 miles
Clouds Clear
Dew Point 38 °F
Humidity 35%
Rainfall 0.00 in
Snow Depth Not available.
UV 5 out of 12
Pollen 1.40 out of 12
Air Quality Not available.
Flu Activity Sporadic
METAR KMTJ 231853Z AUTO 00000KT 10SM CLR 18/03 A3028 RMK AO2 SLP203 T01830033

More Conditions Fewer Conditions

10-Day Weather Forecast

Almanac

Astronomy

Oct. 23, 2014 Rise Set
Actual Time 7:28 AM MDT 6:22 PM MDT
Civil Twilight 7:01 AM MDT 6:49 PM MDT
Nautical Twilight 6:30 AM MDT 7:20 PM MDT
Astronomical Twilight 5:59 AM MDT 7:50 PM MDT
Moon 7:11 AM MDT 6:25 PM MDT
Length of Visible Light 11h 47m
Length of Day
10h 53m
Tomorrow will be 2m 18s shorter.
Waning Crescent, 0% of the Moon is Illuminated
Today
Waning Crescent
Oct 23
New
Oct 30
First Quarter
Nov 6
Full
Nov 14
Last Quarter

Today's Extremes

State Highs State Lows

Community

WunderPhotos

Upload Photos

1,764,350 photos uploaded!

WunderBlogs® & News

By Dr. Jeff Masters
Director of Meteorology, Weather Underground
By Kari Strenfel
Meteorologist, Weather Underground
By Christopher C. Burt
Weather Historian, Weather Underground
October 23, 2014
October 23, 2014
October 23, 2014

Nearby

Snow Depth

Station Depth Elevation
Idarado 0 in 9800 ft
Lone Cone 0 in 9600 ft
Mineral Creek 0 in 10040 ft
Park Reservoir 0 in 9960 ft
Molas Lake 0 in 10500 ft

Earthquake Activity

City Distance Mag. Time & Date
No recent earthquake activity has been reported nearby.
Minimum magnitude displayed is 2.5.

Coastal Water Temperatures

Place Temperature
No Stations Reporting

Nearby Weather Stations